createdAt,value
2018-05-18T00:00:40.425Z,11.88
2018-05-18T00:01:40.643Z,11.83
2018-05-18T00:02:40.857Z,11.80
2018-05-18T00:03:41.049Z,11.65
2018-05-18T00:04:41.257Z,11.62
2018-05-18T00:05:41.457Z,11.51
2018-05-18T00:06:41.658Z,11.54
2018-05-18T00:07:41.862Z,11.49
2018-05-18T00:08:42.055Z,11.47
2018-05-18T00:09:42.232Z,11.47
2018-05-18T00:10:42.457Z,11.39
2018-05-18T00:11:42.662Z,11.28
2018-05-18T00:12:42.877Z,11.43
2018-05-18T00:13:43.078Z,11.40
2018-05-18T00:14:43.278Z,11.42
2018-05-18T00:15:43.460Z,11.39
2018-05-18T00:16:43.650Z,11.44
2018-05-18T00:17:43.848Z,11.52
2018-05-18T00:18:44.062Z,11.37
2018-05-18T00:19:44.243Z,11.37
2018-05-18T00:20:44.449Z,11.39
2018-05-18T00:21:44.648Z,11.46
2018-05-18T00:22:44.838Z,11.44
2018-05-18T00:23:45.052Z,11.42
2018-05-18T00:24:45.249Z,11.47
2018-05-18T00:25:45.442Z,11.44
2018-05-18T00:26:45.648Z,11.46
2018-05-18T00:27:45.859Z,11.46
2018-05-18T00:28:46.037Z,11.49
2018-05-18T00:29:46.230Z,11.49
2018-05-18T00:30:46.425Z,11.47
2018-05-18T00:31:46.662Z,11.37
2018-05-18T00:32:46.866Z,11.29
2018-05-18T00:33:47.074Z,11.36
2018-05-18T00:34:47.331Z,11.44
2018-05-18T00:35:47.402Z,11.49
2018-05-18T00:36:47.597Z,11.46
2018-05-18T00:37:47.797Z,11.32
2018-05-18T00:38:48.002Z,11.22
2018-05-18T00:39:48.206Z,11.24
2018-05-18T00:40:48.389Z,11.33
2018-05-18T00:41:48.593Z,11.33
2018-05-18T00:42:48.801Z,11.28
2018-05-18T00:43:49.014Z,11.40
2018-05-18T00:44:49.195Z,11.33
2018-05-18T00:45:49.380Z,11.37
2018-05-18T00:46:49.565Z,11.43
2018-05-18T00:47:49.759Z,11.43
2018-05-18T00:48:49.953Z,11.47
2018-05-18T00:49:50.147Z,11.55
2018-05-18T00:50:50.361Z,11.55
2018-05-18T00:51:50.565Z,11.58
2018-05-18T00:52:50.777Z,11.49
2018-05-18T00:53:50.975Z,11.55
2018-05-18T00:54:51.187Z,11.47
2018-05-18T00:55:51.378Z,11.51
2018-05-18T00:56:51.578Z,11.54
2018-05-18T00:57:51.784Z,11.49
2018-05-18T00:58:51.995Z,11.49
2018-05-18T00:59:52.202Z,11.46
2018-05-18T01:00:52.462Z,11.51
2018-05-18T01:01:52.535Z,11.47
2018-05-18T01:04:24.752Z,11.49
2018-05-18T01:05:24.829Z,11.65
2018-05-18T01:06:25.025Z,11.37
2018-05-18T01:07:25.208Z,11.46
2018-05-18T01:08:25.412Z,11.57
2018-05-18T01:09:25.592Z,11.52
2018-05-18T01:10:25.804Z,11.49
2018-05-18T01:11:26.000Z,11.29
2018-05-18T01:12:26.185Z,11.37
2018-05-18T01:13:26.437Z,11.40
2018-05-18T01:14:26.618Z,11.36
2018-05-18T01:15:26.812Z,11.42
2018-05-18T01:16:27.021Z,11.29
2018-05-18T01:17:27.214Z,11.35
2018-05-18T01:18:27.417Z,11.18
2018-05-18T01:19:27.706Z,11.22
2018-05-18T01:20:27.814Z,11.25
2018-05-18T01:21:28.011Z,11.35
2018-05-18T01:22:28.233Z,11.27
2018-05-18T01:23:28.426Z,11.28
2018-05-18T01:24:28.671Z,11.25
2018-05-18T01:25:28.855Z,11.33
2018-05-18T01:26:29.032Z,11.32
2018-05-18T01:27:29.228Z,11.51
2018-05-18T01:28:29.435Z,11.42
2018-05-18T01:29:29.625Z,11.46
2018-05-18T01:30:29.798Z,11.47
2018-05-18T01:31:29.981Z,11.57
2018-05-18T01:32:30.188Z,11.60
2018-05-18T01:33:30.361Z,11.39
2018-05-18T01:36:02.171Z,11.36
2018-05-18T01:37:02.345Z,11.33
2018-05-18T01:38:02.535Z,11.29
2018-05-18T01:39:02.728Z,11.28
2018-05-18T01:40:02.923Z,11.25
2018-05-18T01:41:03.109Z,11.25
2018-05-18T01:42:03.319Z,11.33
2018-05-18T01:43:03.512Z,11.27
2018-05-18T01:44:03.726Z,11.32
2018-05-18T01:45:03.932Z,11.27
2018-05-18T01:46:04.139Z,11.28
2018-05-18T01:48:36.247Z,11.03
2018-05-18T01:49:36.422Z,11.19
2018-05-18T01:50:36.627Z,11.32
2018-05-18T01:51:36.810Z,11.25
2018-05-18T01:52:37.006Z,11.29
2018-05-18T01:53:37.205Z,11.27
2018-05-18T01:54:37.398Z,11.39
2018-05-18T01:55:37.595Z,11.35
2018-05-18T01:56:37.796Z,11.25
2018-05-18T01:57:37.978Z,11.35
2018-05-18T01:58:38.176Z,11.19
2018-05-18T01:59:38.361Z,11.09
2018-05-18T02:00:38.568Z,11.18
2018-05-18T02:01:38.772Z,11.19
2018-05-18T02:02:38.983Z,11.10
2018-05-18T02:03:39.178Z,11.02
2018-05-18T02:04:39.391Z,11.04
2018-05-18T02:05:39.578Z,11.17
2018-05-18T02:06:39.779Z,11.07
2018-05-18T02:07:39.960Z,11.04
2018-05-18T02:08:40.162Z,11.19
2018-05-18T02:09:40.356Z,11.22
2018-05-18T02:10:40.546Z,11.07
2018-05-18T02:11:40.726Z,11.18
2018-05-18T02:12:40.931Z,11.11
2018-05-18T02:13:41.134Z,11.18
2018-05-18T02:14:41.334Z,11.06
2018-05-18T02:15:41.531Z,11.11
2018-05-18T02:16:41.700Z,11.07
2018-05-18T02:17:41.915Z,11.15
2018-05-18T02:18:42.100Z,11.27
2018-05-18T02:19:42.327Z,11.28
2018-05-18T02:20:42.508Z,11.35
2018-05-18T02:21:42.694Z,11.33
2018-05-18T02:22:42.902Z,11.39
2018-05-18T02:23:43.102Z,11.49
2018-05-18T02:24:43.306Z,11.43
2018-05-18T02:25:43.500Z,11.52
2018-05-18T02:26:43.710Z,11.51
2018-05-18T02:27:43.919Z,11.55
2018-05-18T02:28:44.113Z,11.55
2018-05-18T02:29:44.306Z,11.51
2018-05-18T02:30:44.514Z,11.61
2018-05-18T02:31:44.714Z,11.58
2018-05-18T02:32:44.924Z,11.58
2018-05-18T02:33:45.129Z,11.39
2018-05-18T02:34:45.313Z,11.33
2018-05-18T02:35:45.512Z,11.33
2018-05-18T02:36:45.716Z,11.39
2018-05-18T02:37:45.922Z,11.39
2018-05-18T02:38:46.137Z,11.32
2018-05-18T02:39:46.325Z,11.32
2018-05-18T02:40:46.519Z,11.29
2018-05-18T02:41:46.716Z,11.35
2018-05-18T02:42:46.914Z,11.33
2018-05-18T02:43:47.104Z,11.27
2018-05-18T02:44:47.293Z,11.27
2018-05-18T02:45:47.482Z,11.25
2018-05-18T02:46:47.680Z,11.29
2018-05-18T02:47:47.879Z,11.47
2018-05-18T02:48:48.072Z,11.37
2018-05-18T02:49:48.282Z,11.35
2018-05-18T02:50:48.470Z,11.44
2018-05-18T02:51:48.674Z,11.37
2018-05-18T02:52:48.865Z,11.36
2018-05-18T02:53:49.073Z,11.47
2018-05-18T02:54:49.286Z,11.49
2018-05-18T02:55:49.476Z,11.36
2018-05-18T02:56:49.673Z,11.51
2018-05-18T02:57:49.868Z,11.52
2018-05-18T02:58:50.067Z,11.43
2018-05-18T02:59:50.275Z,11.35
2018-05-18T03:00:50.473Z,11.35
2018-05-18T03:01:50.720Z,11.37
2018-05-18T03:02:50.902Z,11.35
2018-05-18T03:03:51.107Z,11.32
2018-05-18T03:04:51.295Z,11.33
2018-05-18T03:05:51.482Z,11.25
2018-05-18T03:06:51.700Z,11.32
2018-05-18T03:07:51.900Z,11.24
2018-05-18T03:08:52.174Z,11.14
2018-05-18T03:09:52.258Z,11.22
2018-05-18T03:10:52.469Z,11.25
2018-05-18T03:11:52.672Z,11.18
2018-05-18T03:12:52.867Z,11.22
2018-05-18T03:13:53.070Z,11.14
2018-05-18T03:14:53.252Z,11.29
2018-05-18T03:15:53.433Z,11.28
2018-05-18T03:16:53.615Z,11.29
2018-05-18T03:17:53.825Z,11.19
2018-05-18T03:18:54.023Z,11.35
2018-05-18T03:19:54.224Z,11.24
2018-05-18T03:20:54.492Z,11.22
2018-05-18T03:21:54.613Z,11.25
2018-05-18T03:22:54.800Z,11.29
2018-05-18T03:23:54.983Z,11.19
2018-05-18T03:24:55.184Z,11.25
2018-05-18T03:25:55.390Z,11.27
2018-05-18T03:26:55.590Z,11.29
2018-05-18T03:27:55.783Z,11.37
2018-05-18T03:28:55.986Z,11.37
2018-05-18T03:29:56.206Z,11.29
2018-05-18T03:30:56.411Z,11.42
2018-05-18T03:31:56.603Z,11.28
2018-05-18T03:32:56.792Z,11.39
2018-05-18T03:33:56.982Z,11.39
2018-05-18T03:34:57.189Z,11.32
2018-05-18T03:35:57.399Z,11.35
2018-05-18T03:36:57.602Z,11.22
2018-05-18T03:37:57.812Z,11.19
2018-05-18T03:38:57.996Z,11.36
2018-05-18T03:39:58.192Z,11.28
2018-05-18T03:40:58.402Z,11.25
2018-05-18T03:41:58.586Z,11.33
2018-05-18T03:42:58.767Z,11.28
2018-05-18T03:43:58.976Z,11.22
2018-05-18T03:44:59.163Z,11.22
2018-05-18T03:45:59.348Z,11.24
2018-05-18T03:46:59.539Z,11.29
2018-05-18T03:47:59.727Z,11.29
2018-05-18T03:48:59.937Z,11.25
2018-05-18T03:50:00.140Z,11.32
2018-05-18T03:51:00.343Z,11.27
2018-05-18T03:52:00.646Z,11.28
2018-05-18T03:54:32.780Z,11.24
2018-05-18T03:55:32.830Z,11.24
2018-05-18T03:56:33.030Z,11.24
2018-05-18T03:57:33.220Z,11.21
2018-05-18T03:58:33.428Z,11.27
2018-05-18T03:59:33.635Z,11.22
2018-05-18T04:00:33.838Z,11.25
2018-05-18T04:01:34.200Z,11.17
2018-05-18T04:02:34.262Z,11.17
2018-05-18T04:03:34.461Z,11.25
2018-05-18T04:04:34.671Z,11.18
2018-05-18T04:05:34.876Z,11.18
2018-05-18T04:06:35.061Z,11.07
2018-05-18T04:07:35.276Z,11.14
2018-05-18T04:08:35.452Z,11.19
2018-05-18T04:09:35.664Z,11.22
2018-05-18T04:10:35.850Z,11.29
2018-05-18T04:11:36.037Z,11.36
2018-05-18T04:12:36.226Z,11.33
2018-05-18T04:13:36.435Z,11.27
2018-05-18T04:14:36.624Z,11.27
2018-05-18T04:15:36.809Z,11.35
2018-05-18T04:16:37.022Z,11.24
2018-05-18T04:17:37.233Z,11.25
2018-05-18T04:18:37.424Z,11.36
2018-05-18T04:19:37.633Z,11.21
2018-05-18T04:20:37.843Z,11.27
2018-05-18T04:21:38.032Z,11.25
2018-05-18T04:22:38.233Z,11.29
2018-05-18T04:23:38.452Z,11.25
2018-05-18T04:24:38.656Z,11.28
2018-05-18T04:25:38.843Z,11.32
2018-05-18T04:26:39.057Z,11.22
2018-05-18T04:27:39.238Z,11.14
2018-05-18T04:28:39.446Z,11.22
2018-05-18T04:29:39.630Z,11.11
2018-05-18T04:30:39.843Z,11.14
2018-05-18T04:31:40.030Z,11.21
2018-05-18T04:32:40.221Z,11.28
2018-05-18T04:33:40.433Z,11.37
2018-05-18T04:34:40.648Z,11.27
2018-05-18T04:35:40.853Z,11.27
2018-05-18T04:36:41.062Z,11.22
2018-05-18T04:37:41.272Z,11.25
2018-05-18T04:38:41.455Z,11.28
2018-05-18T04:39:41.667Z,11.24
2018-05-18T04:40:41.863Z,11.29
2018-05-18T04:41:42.054Z,11.28
2018-05-18T04:42:42.263Z,11.14
2018-05-18T04:43:42.476Z,11.03
2018-05-18T04:44:42.684Z,11.04
2018-05-18T04:45:42.891Z,11.03
2018-05-18T04:46:43.079Z,11.10
2018-05-18T04:47:43.257Z,11.03
2018-05-18T04:48:43.436Z,11.14
2018-05-18T04:49:43.653Z,11.03
2018-05-18T04:50:43.916Z,11.11
2018-05-18T04:51:44.067Z,11.19
2018-05-18T04:52:44.268Z,11.28
2018-05-18T04:53:44.476Z,11.25
2018-05-18T04:54:44.665Z,11.39
2018-05-18T04:55:44.862Z,11.35
2018-05-18T04:56:45.071Z,11.21
2018-05-18T04:57:45.282Z,11.27
2018-05-18T04:58:45.494Z,11.22
2018-05-18T04:59:45.671Z,11.25
2018-05-18T05:00:45.864Z,11.02
2018-05-18T05:01:46.061Z,10.92
2018-05-18T05:02:46.273Z,11.02
2018-05-18T05:03:46.481Z,11.07
2018-05-18T05:04:46.684Z,11.03
2018-05-18T05:05:46.895Z,10.89
2018-05-18T05:06:47.100Z,10.89
2018-05-18T05:07:47.298Z,10.84
2018-05-18T05:08:47.484Z,10.96
2018-05-18T05:09:47.672Z,10.94
2018-05-18T05:10:47.883Z,10.97
2018-05-18T05:11:48.083Z,11.04
2018-05-18T05:12:48.273Z,11.11
2018-05-18T05:13:48.546Z,11.22
2018-05-18T05:14:48.629Z,11.22
2018-05-18T05:15:48.813Z,11.25
2018-05-18T05:16:49.001Z,11.33
2018-05-18T05:17:49.222Z,11.28
2018-05-18T05:18:49.404Z,11.28
2018-05-18T05:19:49.613Z,11.24
2018-05-18T05:20:49.807Z,11.06
2018-05-18T05:21:50.019Z,11.14
2018-05-18T05:22:50.228Z,10.89
2018-05-18T05:23:50.429Z,10.92
2018-05-18T05:24:50.671Z,10.99
2018-05-18T05:25:50.879Z,11.10
2018-05-18T05:26:51.062Z,11.09
2018-05-18T05:27:51.253Z,11.14
2018-05-18T05:28:51.486Z,11.22
2018-05-18T05:29:51.647Z,11.22
2018-05-18T05:30:51.845Z,11.06
2018-05-18T05:31:52.059Z,11.10
2018-05-18T05:32:52.247Z,11.11
2018-05-18T05:33:52.467Z,11.00
2018-05-18T05:34:52.680Z,11.15
2018-05-18T05:35:52.903Z,11.27
2018-05-18T05:36:53.113Z,11.24
2018-05-18T05:37:53.309Z,11.40
2018-05-18T05:38:53.532Z,11.46
2018-05-18T05:39:53.710Z,11.46
2018-05-18T05:40:53.920Z,11.40
2018-05-18T05:41:54.133Z,11.28
2018-05-18T05:42:54.331Z,11.39
2018-05-18T05:43:54.539Z,11.33
2018-05-18T05:44:54.722Z,11.37
2018-05-18T05:45:54.931Z,11.25
2018-05-18T05:46:55.195Z,11.25
2018-05-18T05:47:55.358Z,11.27
2018-05-18T05:48:55.553Z,11.28
2018-05-18T05:49:55.742Z,11.25
2018-05-18T05:50:55.939Z,11.21
2018-05-18T05:51:56.128Z,11.24
2018-05-18T05:52:56.419Z,11.35
2018-05-18T05:53:56.507Z,11.36
2018-05-18T05:54:56.723Z,11.09
2018-05-18T05:55:56.937Z,10.99
2018-05-18T05:56:57.149Z,11.10
2018-05-18T05:57:57.348Z,11.14
2018-05-18T05:58:57.533Z,11.19
2018-05-18T05:59:57.722Z,11.27
2018-05-18T06:00:57.914Z,11.19
2018-05-18T06:01:58.124Z,11.29
2018-05-18T06:02:58.334Z,11.24
2018-05-18T06:03:58.539Z,11.28
2018-05-18T06:04:58.735Z,11.40
2018-05-18T06:05:58.934Z,11.27
2018-05-18T06:06:59.128Z,11.39
2018-05-18T06:07:59.309Z,11.32
2018-05-18T06:08:59.501Z,11.33
2018-05-18T06:09:59.687Z,11.28
2018-05-18T06:10:59.901Z,11.24
2018-05-18T06:12:00.166Z,11.32
2018-05-18T06:13:00.224Z,11.29
2018-05-18T06:14:00.431Z,11.37
2018-05-18T06:15:00.672Z,11.42
2018-05-18T06:16:00.848Z,11.32
2018-05-18T06:17:01.043Z,11.17
2018-05-18T06:18:01.248Z,11.21
2018-05-18T06:19:01.459Z,11.27
2018-05-18T06:20:01.653Z,11.19
2018-05-18T06:21:01.863Z,11.28
2018-05-18T06:22:02.061Z,11.29
2018-05-18T06:23:02.262Z,11.32
2018-05-18T06:25:34.376Z,11.40
2018-05-18T06:26:34.547Z,11.29
2018-05-18T06:27:34.744Z,11.35
2018-05-18T06:28:34.955Z,11.37
2018-05-18T06:29:35.148Z,11.27
2018-05-18T06:30:35.334Z,11.42
2018-05-18T06:31:35.527Z,11.51
2018-05-18T06:32:35.714Z,11.52
2018-05-18T06:35:07.859Z,11.47
2018-05-18T06:36:07.997Z,11.60
2018-05-18T06:37:08.203Z,11.65
2018-05-18T06:38:08.403Z,11.58
2018-05-18T06:39:08.611Z,11.49
2018-05-18T06:40:08.822Z,11.44
2018-05-18T06:41:09.095Z,11.25
2018-05-18T06:42:09.238Z,11.03
2018-05-18T06:43:09.421Z,11.27
2018-05-18T06:44:09.619Z,11.03
2018-05-18T06:45:09.819Z,11.09
2018-05-18T06:46:10.008Z,11.14
2018-05-18T06:47:10.218Z,11.15
2018-05-18T06:48:10.401Z,11.06
2018-05-18T06:49:10.741Z,11.15
2018-05-18T06:50:10.826Z,11.25
2018-05-18T06:52:42.951Z,11.32
2018-05-18T06:53:43.125Z,11.22
2018-05-18T06:54:43.321Z,11.25
2018-05-18T06:55:43.529Z,11.37
2018-05-18T06:56:43.746Z,11.21
2018-05-18T06:57:43.933Z,11.29
2018-05-18T06:58:44.189Z,11.24
2018-05-18T06:59:44.316Z,11.46
2018-05-18T07:00:44.492Z,11.52
2018-05-18T07:01:44.692Z,11.65
2018-05-18T07:02:44.873Z,11.78
2018-05-18T07:03:45.081Z,11.83
2018-05-18T07:04:45.293Z,11.64
2018-05-18T07:05:45.485Z,11.69
2018-05-18T07:06:45.668Z,11.64
2018-05-18T07:07:45.854Z,11.46
2018-05-18T07:08:46.046Z,11.55
2018-05-18T07:09:46.246Z,11.65
2018-05-18T07:10:46.430Z,11.78
2018-05-18T07:11:46.640Z,11.82
2018-05-18T07:12:46.836Z,11.75
2018-05-18T07:13:47.018Z,11.80
2018-05-18T07:14:47.217Z,11.78
2018-05-18T07:15:47.428Z,11.65
2018-05-18T07:16:47.641Z,11.57
2018-05-18T07:17:47.833Z,11.57
2018-05-18T07:18:48.026Z,11.46
2018-05-18T07:19:48.214Z,11.57
2018-05-18T07:20:48.412Z,11.83
2018-05-18T07:21:48.652Z,11.82
2018-05-18T07:22:48.829Z,11.95
2018-05-18T07:23:49.018Z,11.96
2018-05-18T07:24:49.204Z,12.02
2018-05-18T07:25:49.399Z,12.02
2018-05-18T07:26:49.617Z,11.90
2018-05-18T07:27:49.823Z,11.98
2018-05-18T07:28:50.033Z,12.02
2018-05-18T07:29:50.223Z,12.07
2018-05-18T07:30:50.442Z,12.05
2018-05-18T07:31:50.641Z,11.99
2018-05-18T07:32:50.841Z,12.01
2018-05-18T07:35:22.721Z,11.33
2018-05-18T07:36:22.881Z,11.25
2018-05-18T07:37:23.061Z,11.43
2018-05-18T07:38:23.271Z,11.52
2018-05-18T07:39:23.499Z,11.70
2018-05-18T07:40:23.688Z,11.69
2018-05-18T07:41:23.890Z,11.54
2018-05-18T07:42:24.079Z,11.49
2018-05-18T07:43:24.354Z,11.46
2018-05-18T07:44:24.393Z,11.64
2018-05-18T07:45:24.582Z,11.58
2018-05-18T07:46:24.792Z,11.47
2018-05-18T07:48:56.601Z,11.67
2018-05-18T07:49:56.779Z,11.86
2018-05-18T07:50:56.987Z,12.04
2018-05-18T07:51:57.182Z,12.09
2018-05-18T07:52:57.404Z,12.24
2018-05-18T07:53:57.571Z,12.23
2018-05-18T07:54:57.756Z,12.19
2018-05-18T07:55:57.967Z,12.05
2018-05-18T07:56:58.166Z,11.99
2018-05-18T07:57:58.353Z,12.14
2018-05-18T07:58:58.548Z,12.07
2018-05-18T07:59:58.754Z,12.14
2018-05-18T08:00:58.960Z,12.32
2018-05-18T08:01:59.170Z,12.29
2018-05-18T08:02:59.355Z,12.38
2018-05-18T08:03:59.559Z,12.46
2018-05-18T08:04:59.783Z,12.42
2018-05-18T08:05:59.989Z,12.39
2018-05-18T08:07:00.195Z,12.45
2018-05-18T08:08:00.382Z,12.21
2018-05-18T08:09:00.607Z,12.29
2018-05-18T08:10:00.799Z,12.41
2018-05-18T08:11:01.003Z,12.42
2018-05-18T08:12:01.187Z,12.35
2018-05-18T08:13:01.390Z,12.45
2018-05-18T08:14:01.577Z,12.34
2018-05-18T08:15:01.806Z,12.27
2018-05-18T08:16:02.000Z,12.21
2018-05-18T08:17:02.271Z,12.29
2018-05-18T08:18:02.372Z,12.31
2018-05-18T08:19:02.557Z,12.45
2018-05-18T08:20:02.750Z,12.38
2018-05-18T08:21:02.967Z,12.41
2018-05-18T08:22:03.162Z,12.52
2018-05-18T08:23:03.352Z,12.46
2018-05-18T08:24:03.525Z,12.50
2018-05-18T08:25:03.723Z,12.17
2018-05-18T08:26:03.911Z,12.28
2018-05-18T08:27:04.270Z,12.46
2018-05-18T08:28:04.256Z,12.39
2018-05-18T08:29:04.447Z,12.32
2018-05-18T08:30:04.637Z,12.19
2018-05-18T08:31:04.856Z,12.13
2018-05-18T08:32:05.060Z,11.85
2018-05-18T08:33:05.248Z,11.79
2018-05-18T08:34:05.447Z,11.83
2018-05-18T08:35:05.634Z,11.70
2018-05-18T08:36:05.828Z,11.51
2018-05-18T08:37:06.014Z,11.79
2018-05-18T08:38:06.232Z,11.90
2018-05-18T08:39:06.526Z,11.96
2018-05-18T08:40:06.655Z,11.88
2018-05-18T08:41:06.869Z,11.62
2018-05-18T08:42:07.073Z,11.67
2018-05-18T08:43:07.279Z,11.57
2018-05-18T08:44:07.460Z,11.49
2018-05-18T08:45:07.647Z,11.65
2018-05-18T08:46:07.869Z,11.61
2018-05-18T08:47:08.033Z,11.80
2018-05-18T08:48:08.251Z,11.86
2018-05-18T08:49:08.447Z,11.98
2018-05-18T08:50:08.644Z,12.01
2018-05-18T08:51:08.832Z,11.98
2018-05-18T08:52:09.042Z,11.98
2018-05-18T08:53:09.257Z,12.20
2018-05-18T08:54:09.480Z,12.12
2018-05-18T08:55:09.659Z,12.04
2018-05-18T08:56:09.850Z,12.23
2018-05-18T08:57:10.061Z,12.41
2018-05-18T08:58:10.252Z,12.68
2018-05-18T08:59:10.463Z,12.65
2018-05-18T09:00:10.673Z,12.60
2018-05-18T09:01:10.891Z,12.60
2018-05-18T09:03:43.033Z,12.24
2018-05-18T09:04:43.201Z,12.28
2018-05-18T09:05:43.412Z,12.05
2018-05-18T09:06:43.597Z,12.24
2018-05-18T09:07:43.792Z,12.07
2018-05-18T09:08:44.010Z,12.24
2018-05-18T09:09:44.340Z,12.23
2018-05-18T09:10:44.398Z,12.12
2018-05-18T09:11:44.588Z,12.31
2018-05-18T09:12:44.827Z,12.04
2018-05-18T09:13:45.015Z,12.19
2018-05-18T09:14:45.223Z,12.27
2018-05-18T09:15:45.432Z,12.23
2018-05-18T09:16:45.640Z,11.99
2018-05-18T09:17:45.853Z,12.04
2018-05-18T09:18:46.021Z,12.01
2018-05-18T09:19:46.220Z,11.91
2018-05-18T09:20:46.408Z,11.94
2018-05-18T09:23:18.815Z,12.21
2018-05-18T09:24:18.739Z,12.39
2018-05-18T09:25:18.943Z,12.68
2018-05-18T09:26:19.176Z,12.59
2018-05-18T09:27:19.350Z,12.38
2018-05-18T09:28:19.545Z,12.54
2018-05-18T09:29:19.756Z,12.77
2018-05-18T09:30:20.094Z,12.85
2018-05-18T09:31:20.173Z,12.77
2018-05-18T09:32:20.382Z,12.90
2018-05-18T09:33:20.589Z,13.04
2018-05-18T09:34:20.809Z,13.03
2018-05-18T09:35:20.998Z,12.57
2018-05-18T09:36:21.209Z,12.47
2018-05-18T09:37:21.423Z,12.65
2018-05-18T09:38:21.609Z,12.82
2018-05-18T09:39:21.808Z,12.77
2018-05-18T09:40:22.000Z,12.42
2018-05-18T09:41:22.270Z,12.37
2018-05-18T09:42:22.353Z,12.31
2018-05-18T09:43:22.569Z,12.42
2018-05-18T09:44:22.791Z,12.37
2018-05-18T09:45:22.995Z,12.28
2018-05-18T09:46:23.169Z,12.41
2018-05-18T09:47:23.393Z,12.68
2018-05-18T09:48:23.588Z,12.64
2018-05-18T09:49:23.781Z,12.71
2018-05-18T09:50:23.994Z,12.85
2018-05-18T09:51:24.202Z,12.95
2018-05-18T09:52:24.619Z,12.79
2018-05-18T09:53:24.561Z,12.85
2018-05-18T09:54:24.966Z,13.11
2018-05-18T09:55:25.226Z,13.11
2018-05-18T09:56:25.194Z,13.38
2018-05-18T09:57:25.384Z,13.55
2018-05-18T09:58:25.584Z,13.39
2018-05-18T09:59:25.773Z,13.17
2018-05-18T10:00:25.980Z,13.54
2018-05-18T10:01:26.191Z,13.78
2018-05-18T10:02:26.402Z,13.88
2018-05-18T10:03:26.612Z,13.85
2018-05-18T10:04:26.817Z,13.85
2018-05-18T10:05:26.983Z,13.70
2018-05-18T10:06:27.207Z,13.46
2018-05-18T10:07:27.408Z,13.42
2018-05-18T10:08:27.615Z,13.70
2018-05-18T10:09:27.823Z,13.67
2018-05-18T10:10:28.029Z,13.66
2018-05-18T10:11:28.215Z,13.85
2018-05-18T10:12:28.494Z,13.59
2018-05-18T10:13:28.628Z,13.55
2018-05-18T10:14:28.838Z,13.51
2018-05-18T10:15:29.024Z,13.25
2018-05-18T10:16:29.213Z,13.08
2018-05-18T10:17:29.420Z,12.97
2018-05-18T10:18:29.659Z,12.60
2018-05-18T10:19:29.813Z,12.60
2018-05-18T10:20:30.000Z,12.85
2018-05-18T10:21:30.194Z,12.97
2018-05-18T10:22:30.396Z,13.14
2018-05-18T10:23:30.606Z,13.14
2018-05-18T10:24:30.813Z,13.42
2018-05-18T10:25:31.029Z,13.66
2018-05-18T10:26:31.232Z,13.49
2018-05-18T10:27:31.441Z,13.52
2018-05-18T10:28:31.632Z,13.55
2018-05-18T10:29:31.835Z,13.64
2018-05-18T10:30:32.037Z,13.78
2018-05-18T10:31:32.242Z,14.17
2018-05-18T10:32:32.442Z,14.54
2018-05-18T10:33:32.657Z,14.36
2018-05-18T10:34:32.854Z,14.64
2018-05-18T10:35:33.075Z,14.96
2018-05-18T10:36:33.270Z,15.19
2018-05-18T10:37:33.458Z,15.06
2018-05-18T10:38:33.675Z,15.32
2018-05-18T10:39:33.928Z,15.44
2018-05-18T10:40:34.122Z,15.62
2018-05-18T10:41:34.333Z,15.90
2018-05-18T10:42:34.513Z,15.92
2018-05-18T10:43:34.720Z,16.21
2018-05-18T10:44:34.920Z,16.07
2018-05-18T10:45:35.108Z,16.28
2018-05-18T10:46:35.318Z,16.67
2018-05-18T10:47:35.511Z,16.76
2018-05-18T10:48:35.708Z,16.79
2018-05-18T10:51:07.867Z,16.66
2018-05-18T10:52:08.038Z,16.08
2018-05-18T10:53:08.340Z,15.80
2018-05-18T10:54:08.462Z,15.65
2018-05-18T10:55:08.655Z,15.49
2018-05-18T10:56:08.848Z,15.62
2018-05-18T10:57:09.031Z,16.01
2018-05-18T10:58:09.216Z,16.08
2018-05-18T10:59:09.440Z,15.60
2018-05-18T11:00:09.626Z,15.75
2018-05-18T11:01:09.821Z,15.86
2018-05-18T11:02:10.020Z,16.01
2018-05-18T11:03:10.241Z,16.00
2018-05-18T11:04:10.413Z,16.08
2018-05-18T11:05:10.605Z,15.96
2018-05-18T11:06:10.795Z,15.97
2018-05-18T11:07:11.004Z,16.09
2018-05-18T11:08:11.199Z,16.01
2018-05-18T11:09:11.388Z,15.83
2018-05-18T11:10:11.588Z,16.12
2018-05-18T11:11:11.784Z,16.48
2018-05-18T11:12:11.980Z,16.23
2018-05-18T11:13:12.188Z,16.07
2018-05-18T11:14:12.469Z,15.92
2018-05-18T11:15:12.635Z,16.01
2018-05-18T11:16:12.833Z,15.56
2018-05-18T11:17:13.053Z,15.75
2018-05-18T11:18:13.245Z,15.59
2018-05-18T11:19:13.484Z,15.65
2018-05-18T11:20:13.670Z,15.74
2018-05-18T11:21:13.862Z,15.80
2018-05-18T11:22:14.100Z,15.78
2018-05-18T11:23:14.310Z,15.92
2018-05-18T11:24:14.504Z,16.23
2018-05-18T11:25:14.712Z,16.20
2018-05-18T11:26:14.957Z,16.04
2018-05-18T11:27:15.089Z,16.24
2018-05-18T11:29:47.256Z,16.57
2018-05-18T11:30:47.440Z,16.39
2018-05-18T11:31:47.642Z,16.31
2018-05-18T11:32:47.837Z,16.20
2018-05-18T11:33:48.031Z,15.93
2018-05-18T11:34:48.217Z,15.51
2018-05-18T11:35:48.442Z,15.43
2018-05-18T11:36:48.660Z,15.74
2018-05-18T11:37:48.862Z,15.74
2018-05-18T11:38:49.070Z,16.01
2018-05-18T11:39:49.278Z,15.93
2018-05-18T11:40:49.478Z,15.93
2018-05-18T11:41:49.683Z,15.93
2018-05-18T11:42:49.896Z,15.86
2018-05-18T11:43:50.096Z,15.71
2018-05-18T11:44:50.306Z,15.47
2018-05-18T11:45:50.499Z,15.80
2018-05-18T11:46:50.687Z,15.92
2018-05-18T11:47:50.896Z,16.02
2018-05-18T11:48:51.103Z,15.93
2018-05-18T11:49:51.318Z,15.06
2018-05-18T11:50:51.511Z,14.47
2018-05-18T11:51:51.727Z,14.36
2018-05-18T11:52:51.919Z,14.58
2018-05-18T11:53:52.213Z,14.78
2018-05-18T11:54:52.368Z,15.14
2018-05-18T11:55:52.423Z,14.99
2018-05-18T11:56:52.634Z,14.39
2018-05-18T11:57:52.842Z,14.57
2018-05-18T11:58:53.030Z,14.60
2018-05-18T11:59:53.233Z,15.02
2018-05-18T12:00:53.423Z,15.27
2018-05-18T12:01:53.620Z,15.21
2018-05-18T12:02:53.831Z,15.35
2018-05-18T12:03:54.029Z,15.41
2018-05-18T12:04:54.248Z,15.50
2018-05-18T12:05:54.443Z,15.36
2018-05-18T12:06:54.667Z,14.94
2018-05-18T12:07:54.889Z,15.19
2018-05-18T12:08:55.101Z,15.01
2018-05-18T12:09:55.293Z,15.29
2018-05-18T12:10:55.494Z,15.35
2018-05-18T12:11:55.693Z,15.32
2018-05-18T12:12:55.891Z,15.65
2018-05-18T12:13:56.093Z,16.00
2018-05-18T12:14:56.280Z,16.00
2018-05-18T12:15:56.497Z,15.89
2018-05-18T12:16:56.704Z,15.54
2018-05-18T12:17:56.889Z,15.28
2018-05-18T12:18:57.085Z,15.67
2018-05-18T12:19:57.295Z,15.54
2018-05-18T12:20:57.492Z,15.64
2018-05-18T12:21:57.678Z,15.41
2018-05-18T12:22:57.898Z,15.47
2018-05-18T12:23:58.094Z,15.27
2018-05-18T12:24:58.285Z,15.19
2018-05-18T12:25:58.505Z,15.28
2018-05-18T12:26:58.698Z,15.49
2018-05-18T12:27:58.901Z,15.75
2018-05-18T12:28:59.130Z,15.96
2018-05-18T12:29:59.300Z,16.01
2018-05-18T12:30:59.506Z,15.92
2018-05-18T12:31:59.701Z,15.64
2018-05-18T12:32:59.917Z,16.09
2018-05-18T12:34:00.126Z,16.41
2018-05-18T12:35:00.314Z,15.74
2018-05-18T12:36:00.504Z,15.80
2018-05-18T12:38:33.781Z,16.05
2018-05-18T12:39:33.958Z,16.15
2018-05-18T12:40:34.171Z,16.27
2018-05-18T12:41:34.380Z,16.46
2018-05-18T12:42:34.594Z,16.78
2018-05-18T12:45:07.849Z,16.00
2018-05-18T12:46:08.040Z,15.93
2018-05-18T12:47:08.244Z,16.15
2018-05-18T12:48:08.456Z,16.12
2018-05-18T12:49:08.665Z,16.07
2018-05-18T12:50:08.884Z,16.21
2018-05-18T12:51:09.099Z,16.27
2018-05-18T12:53:41.446Z,16.67
2018-05-18T12:54:41.620Z,16.66
2018-05-18T12:55:41.822Z,16.41
2018-05-18T12:56:42.026Z,16.05
2018-05-18T12:57:42.301Z,15.56
2018-05-18T12:58:42.382Z,15.13
2018-05-18T12:59:42.573Z,15.39
2018-05-18T13:00:42.799Z,15.54
2018-05-18T13:01:42.993Z,15.76
2018-05-18T13:02:43.191Z,15.39
2018-05-18T13:03:43.400Z,15.21
2018-05-18T13:04:43.602Z,15.16
2018-05-18T13:05:43.807Z,15.59
2018-05-18T13:06:44.041Z,15.76
2018-05-18T13:07:44.191Z,15.97
2018-05-18T13:10:17.201Z,16.66
2018-05-18T13:11:17.384Z,16.52
2018-05-18T13:12:17.588Z,16.35
2018-05-18T13:13:17.800Z,16.42
2018-05-18T13:14:17.991Z,15.93
2018-05-18T13:15:18.188Z,15.60
2018-05-18T13:16:18.396Z,15.35
2018-05-18T13:17:18.589Z,15.13
2018-05-18T13:18:18.795Z,15.34
2018-05-18T13:19:18.986Z,15.13
2018-05-18T13:20:19.176Z,14.88
2018-05-18T13:21:19.445Z,14.92